createdAt,value
2023-04-22T00:00:09.955Z,40.00
2023-04-22T00:03:02.023Z,34.20
2023-04-22T00:05:30.626Z,36.00
2023-04-22T00:07:58.467Z,30.40
2023-04-22T00:10:27.644Z,35.00
2023-04-22T00:12:55.605Z,31.00
2023-04-22T00:15:23.562Z,35.90
2023-04-22T00:17:51.516Z,40.70
2023-04-22T00:20:23.875Z,41.20
2023-04-22T00:22:51.864Z,56.00
2023-04-22T00:25:19.958Z,59.50
2023-04-22T00:27:48.095Z,70.00
2023-04-22T00:30:16.024Z,75.20
2023-04-22T00:32:43.923Z,72.20
2023-04-22T00:35:11.943Z,68.70
2023-04-22T00:37:39.977Z,63.40
2023-04-22T00:40:08.921Z,42.90
2023-04-22T00:42:38.252Z,31.50
2023-04-22T00:45:10.949Z,29.40
2023-04-22T00:47:38.932Z,31.50
2023-04-22T00:50:07.912Z,25.20
2023-04-22T00:52:35.950Z,28.40
2023-04-22T00:55:04.738Z,23.40
2023-04-22T00:57:34.964Z,25.40
2023-04-22T01:00:05.390Z,27.00
2023-04-22T01:02:33.643Z,23.60
2023-04-22T01:05:03.530Z,19.20
2023-04-22T01:07:31.670Z,20.10
2023-04-22T01:10:00.844Z,23.80
2023-04-22T01:12:29.513Z,18.70
2023-04-22T01:14:57.497Z,23.20
2023-04-22T01:17:25.915Z,20.50
2023-04-22T01:19:55.665Z,21.20
2023-04-22T01:22:26.237Z,20.00
2023-04-22T01:24:55.119Z,20.80
2023-04-22T01:27:23.332Z,23.10
2023-04-22T01:29:53.110Z,19.40
2023-04-22T01:32:21.668Z,25.60
2023-04-22T01:34:49.934Z,26.80
2023-04-22T01:37:19.788Z,23.40
2023-04-22T01:39:48.247Z,23.50
2023-04-22T01:42:16.363Z,25.00
2023-04-22T01:44:44.366Z,39.90
2023-04-22T01:47:13.436Z,34.30
2023-04-22T01:49:41.659Z,29.10
2023-04-22T01:52:10.706Z,28.70
2023-04-22T01:54:38.991Z,27.90
2023-04-22T01:57:16.635Z,29.70
2023-04-22T01:59:45.100Z,29.50
2023-04-22T02:02:13.063Z,25.70
2023-04-22T02:04:41.176Z,28.30
2023-04-22T02:07:09.162Z,29.40
2023-04-22T02:09:38.055Z,26.50
2023-04-22T02:12:06.556Z,26.30
2023-04-22T02:14:34.787Z,25.20
2023-04-22T02:17:05.001Z,22.00
2023-04-22T02:19:32.986Z,23.20
2023-04-22T02:22:02.935Z,22.10
2023-04-22T02:24:31.705Z,22.00
2023-04-22T02:27:00.477Z,22.40
2023-04-22T02:29:32.479Z,25.40
2023-04-22T02:32:00.522Z,20.80
2023-04-22T02:34:28.944Z,21.10
2023-04-22T02:36:56.850Z,22.70
2023-04-22T02:39:25.986Z,22.50
2023-04-22T02:41:54.780Z,25.00
2023-04-22T02:44:23.261Z,22.20
2023-04-22T02:46:51.268Z,25.80
2023-04-22T02:49:19.241Z,21.60
2023-04-22T02:51:47.166Z,25.60
2023-04-22T02:54:15.536Z,25.30
2023-04-22T02:56:43.374Z,28.10
2023-04-22T02:59:11.301Z,26.90
2023-04-22T03:01:39.281Z,24.10
2023-04-22T03:04:08.341Z,25.70
2023-04-22T03:06:36.631Z,20.40
2023-04-22T03:09:04.559Z,22.40
2023-04-22T03:11:32.888Z,18.50
2023-04-22T03:14:00.803Z,22.30
2023-04-22T03:16:28.931Z,22.70
2023-04-22T03:18:58.895Z,22.80
2023-04-22T03:21:26.730Z,24.80
2023-04-22T03:23:55.190Z,20.10
2023-04-22T03:26:23.962Z,19.70
2023-04-22T03:28:52.238Z,22.90
2023-04-22T03:31:20.338Z,17.80
2023-04-22T03:33:48.860Z,20.70
2023-04-22T03:36:27.481Z,21.30
2023-04-22T03:38:56.237Z,22.10
2023-04-22T03:41:26.663Z,15.50
2023-04-22T03:43:54.775Z,20.00
2023-04-22T03:46:22.886Z,22.90
2023-04-22T03:49:17.035Z,21.10
2023-04-22T03:51:45.237Z,23.50
2023-04-22T03:54:16.499Z,18.70
2023-04-22T03:56:51.219Z,16.20
2023-04-22T03:59:20.348Z,23.30
2023-04-22T04:01:52.485Z,18.50
2023-04-22T04:04:23.893Z,16.60
2023-04-22T04:06:56.643Z,26.20
2023-04-22T04:09:24.991Z,21.00
2023-04-22T04:11:53.117Z,24.20
2023-04-22T04:14:21.858Z,20.60
2023-04-22T04:16:52.248Z,23.70
2023-04-22T04:19:28.846Z,23.40
2023-04-22T04:21:57.107Z,16.50
2023-04-22T04:24:26.081Z,19.80
2023-04-22T04:26:58.272Z,21.20
2023-04-22T04:29:30.981Z,21.30
2023-04-22T04:32:10.515Z,21.60
2023-04-22T04:34:38.561Z,27.10
2023-04-22T04:37:06.841Z,23.50
2023-04-22T04:39:59.365Z,24.60
2023-04-22T04:42:33.626Z,21.40
2023-04-22T04:45:05.046Z,28.30
2023-04-22T04:47:34.076Z,21.90
2023-04-22T04:50:11.918Z,18.80
2023-04-22T04:52:40.377Z,21.90
2023-04-22T04:55:08.918Z,16.40
2023-04-22T04:57:38.442Z,19.20
2023-04-22T05:00:08.210Z,19.70
2023-04-22T05:02:37.171Z,22.70
2023-04-22T05:05:07.732Z,16.20
2023-04-22T05:07:36.720Z,16.70
2023-04-22T05:10:07.266Z,19.80
2023-04-22T05:12:35.475Z,18.90
2023-04-22T05:15:05.278Z,22.30
2023-04-22T05:17:33.336Z,22.20
2023-04-22T05:20:01.510Z,24.90
2023-04-22T05:22:30.358Z,20.50
2023-04-22T05:24:59.203Z,23.00
2023-04-22T05:27:27.138Z,20.90
2023-04-22T05:29:55.044Z,22.70
2023-04-22T05:32:26.893Z,16.70
2023-04-22T05:34:54.903Z,19.60
2023-04-22T05:37:22.785Z,25.10
2023-04-22T05:39:51.414Z,19.60
2023-04-22T05:42:19.512Z,16.00
2023-04-22T05:44:47.611Z,17.20
2023-04-22T05:47:15.974Z,15.50
2023-04-22T05:49:44.187Z,15.50
2023-04-22T05:52:18.883Z,17.40
2023-04-22T05:54:59.177Z,18.10
2023-04-22T05:57:27.288Z,18.10
2023-04-22T05:59:55.339Z,28.80
2023-04-22T06:02:24.405Z,33.30
2023-04-22T06:04:52.954Z,27.20
2023-04-22T06:07:22.877Z,25.00
2023-04-22T06:09:59.437Z,32.50
2023-04-22T06:12:34.700Z,28.00
2023-04-22T06:15:03.266Z,21.30
2023-04-22T06:17:31.517Z,19.10
2023-04-22T06:19:59.415Z,25.20
2023-04-22T06:22:27.514Z,23.60
2023-04-22T06:24:55.683Z,18.30
2023-04-22T06:27:23.708Z,22.50
2023-04-22T06:29:51.731Z,21.30
2023-04-22T06:32:19.617Z,31.40
2023-04-22T06:34:47.591Z,22.00
2023-04-22T06:37:16.218Z,21.80
2023-04-22T06:39:44.817Z,24.00
2023-04-22T06:42:32.613Z,25.50
2023-04-22T06:45:20.451Z,21.90
2023-04-22T06:48:11.285Z,22.80
2023-04-22T06:51:17.807Z,18.00
2023-04-22T06:53:46.406Z,15.00
2023-04-22T06:58:44.884Z,15.30
2023-04-22T07:01:12.724Z,12.50
2023-04-22T07:03:41.761Z,12.90
2023-04-22T07:06:12.320Z,11.70
2023-04-22T07:08:41.005Z,13.50
2023-04-22T07:11:11.891Z,14.60
2023-04-22T07:13:53.239Z,12.50
2023-04-22T07:16:21.305Z,12.10
2023-04-22T07:18:49.429Z,11.20
2023-04-22T07:21:17.419Z,12.70
2023-04-22T07:23:45.488Z,12.90
2023-04-22T07:26:13.789Z,13.60
2023-04-22T07:28:41.705Z,14.50
2023-04-22T07:31:09.659Z,17.80
2023-04-22T07:33:39.612Z,13.80
2023-04-22T07:36:08.119Z,14.30
2023-04-22T07:38:36.536Z,11.20
2023-04-22T07:41:04.415Z,14.70
2023-04-22T07:43:32.281Z,13.20
2023-04-22T07:46:00.445Z,13.60
2023-04-22T07:48:28.555Z,12.90
2023-04-22T07:50:56.586Z,16.70
2023-04-22T07:53:24.519Z,17.10
2023-04-22T07:55:52.549Z,16.90
2023-04-22T07:58:20.541Z,20.80
2023-04-22T08:00:48.439Z,13.90
2023-04-22T08:03:16.719Z,10.80
2023-04-22T08:05:44.996Z,16.20
2023-04-22T08:08:13.226Z,13.80
2023-04-22T08:10:41.180Z,11.60
2023-04-22T08:13:09.118Z,9.40
2023-04-22T08:15:37.195Z,10.50
2023-04-22T08:18:05.376Z,14.90
2023-04-22T08:20:33.372Z,8.10
2023-04-22T08:23:01.452Z,8.80
2023-04-22T08:25:30.770Z,9.20
2023-04-22T08:27:58.728Z,18.90
2023-04-22T08:30:26.692Z,9.20
2023-04-22T08:32:54.850Z,17.80
2023-04-22T08:35:22.857Z,26.40
2023-04-22T08:37:50.905Z,13.30
2023-04-22T08:40:18.928Z,15.20
2023-04-22T08:42:47.039Z,15.50
2023-04-22T08:45:16.051Z,21.10
2023-04-22T08:47:44.470Z,9.60
2023-04-22T08:50:12.553Z,10.00
2023-04-22T08:52:43.103Z,11.80
2023-04-22T08:55:12.316Z,14.50
2023-04-22T08:57:41.819Z,12.60
2023-04-22T09:00:10.226Z,17.30
2023-04-22T09:02:42.181Z,13.10
2023-04-22T09:05:11.341Z,11.90
2023-04-22T09:07:40.923Z,15.70
2023-04-22T09:10:09.249Z,14.30
2023-04-22T09:12:38.816Z,11.80
2023-04-22T09:15:08.133Z,12.20
2023-04-22T09:17:39.179Z,9.20
2023-04-22T09:20:08.896Z,8.10
2023-04-22T09:22:40.287Z,6.50
2023-04-22T09:25:19.300Z,16.70
2023-04-22T09:27:52.272Z,9.60
2023-04-22T09:30:32.009Z,9.90
2023-04-22T09:33:04.810Z,7.60
2023-04-22T09:35:35.963Z,11.30
2023-04-22T09:38:09.153Z,8.10
2023-04-22T09:40:39.026Z,10.10
2023-04-22T09:43:09.344Z,11.40
2023-04-22T09:45:38.338Z,9.90
2023-04-22T09:48:12.564Z,9.60
2023-04-22T09:50:44.665Z,10.60
2023-04-22T09:53:16.650Z,12.60
2023-04-22T09:55:50.368Z,15.60
2023-04-22T09:58:20.799Z,9.00
2023-04-22T10:00:51.437Z,10.20
2023-04-22T10:05:48.625Z,8.80
2023-04-22T10:08:17.231Z,9.60
2023-04-22T10:10:46.317Z,13.30
2023-04-22T10:13:14.504Z,7.80
2023-04-22T10:15:48.678Z,13.00
2023-04-22T10:18:23.240Z,11.90
2023-04-22T10:20:51.949Z,10.50
2023-04-22T10:23:23.113Z,7.80
2023-04-22T10:25:54.639Z,10.30
2023-04-22T10:28:24.235Z,7.90
2023-04-22T10:30:52.215Z,9.00
2023-04-22T10:33:28.964Z,11.70
2023-04-22T10:36:15.849Z,8.10
2023-04-22T10:38:50.521Z,10.80
2023-04-22T10:41:24.342Z,12.00
2023-04-22T10:44:00.358Z,9.50
2023-04-22T10:46:38.158Z,12.10
2023-04-22T10:49:08.116Z,9.40
2023-04-22T10:51:43.478Z,9.00
2023-04-22T10:54:29.343Z,8.90
2023-04-22T10:57:08.683Z,11.00
2023-04-22T10:59:50.059Z,7.90
2023-04-22T11:02:20.477Z,8.60
2023-04-22T11:04:49.422Z,7.30
2023-04-22T11:07:27.066Z,14.20
2023-04-22T11:10:03.348Z,7.10
2023-04-22T11:12:38.448Z,8.30
2023-04-22T11:15:20.177Z,6.10
2023-04-22T11:17:53.338Z,9.30
2023-04-22T11:20:21.682Z,11.00
2023-04-22T11:22:52.980Z,7.70
2023-04-22T11:25:22.227Z,7.10
2023-04-22T11:27:50.532Z,7.00
2023-04-22T11:30:21.684Z,9.00
2023-04-22T11:32:54.040Z,11.10
2023-04-22T11:35:24.782Z,6.70
2023-04-22T11:40:38.822Z,6.90
2023-04-22T11:43:09.976Z,5.10
2023-04-22T11:45:39.302Z,9.70
2023-04-22T11:48:09.219Z,7.60
2023-04-22T11:50:40.306Z,6.00
2023-04-22T11:53:18.715Z,7.80
2023-04-22T11:55:51.199Z,5.30
2023-04-22T11:58:27.429Z,7.10
2023-04-22T12:00:57.724Z,6.60
2023-04-22T12:03:28.745Z,8.00
2023-04-22T12:06:06.822Z,13.60
2023-04-22T12:08:37.257Z,7.70
2023-04-22T12:11:07.229Z,11.50
2023-04-22T12:13:38.013Z,6.10
2023-04-22T12:16:12.879Z,8.10
2023-04-22T12:18:50.866Z,6.70
2023-04-22T12:21:24.975Z,13.20
2023-04-22T12:23:54.601Z,7.20
2023-04-22T12:26:32.406Z,6.60
2023-04-22T12:29:00.925Z,5.90
2023-04-22T12:31:28.912Z,6.40
2023-04-22T12:33:57.027Z,6.00
2023-04-22T12:36:26.309Z,15.60
2023-04-22T12:38:54.223Z,10.20
2023-04-22T12:41:23.681Z,10.50
2023-04-22T12:43:52.779Z,6.60
2023-04-22T12:46:21.039Z,13.80
2023-04-22T12:48:49.025Z,7.80
2023-04-22T12:51:16.921Z,5.80
2023-04-22T12:53:44.783Z,6.10
2023-04-22T12:56:13.308Z,6.50
2023-04-22T12:58:42.033Z,8.60
2023-04-22T13:01:09.949Z,5.30
2023-04-22T13:03:39.378Z,10.30
2023-04-22T13:06:07.472Z,6.30
2023-04-22T13:08:35.469Z,6.90
2023-04-22T13:11:03.932Z,6.80
2023-04-22T13:13:32.322Z,7.10
2023-04-22T13:16:00.517Z,8.20
2023-04-22T13:18:28.537Z,6.10
2023-04-22T13:20:56.976Z,10.20
2023-04-22T13:23:26.064Z,7.90
2023-04-22T13:25:54.633Z,9.40
2023-04-22T13:28:22.586Z,11.50
2023-04-22T13:30:50.773Z,7.50
2023-04-22T13:33:18.783Z,5.30
2023-04-22T13:35:46.794Z,10.20
2023-04-22T13:38:14.684Z,5.60
2023-04-22T13:40:42.705Z,6.70
2023-04-22T13:43:10.689Z,10.60
2023-04-22T13:45:38.723Z,5.40
2023-04-22T13:48:06.656Z,7.40
2023-04-22T13:50:34.457Z,7.70
2023-04-22T13:53:04.050Z,5.60
2023-04-22T13:55:32.064Z,5.80
2023-04-22T13:58:01.221Z,7.40
2023-04-22T14:00:29.239Z,7.60
2023-04-22T14:02:57.393Z,10.50
2023-04-22T14:05:25.780Z,11.20
2023-04-22T14:07:54.603Z,5.70
2023-04-22T14:10:22.715Z,7.50
2023-04-22T14:12:50.990Z,6.50
2023-04-22T14:15:18.949Z,5.80
2023-04-22T14:17:49.609Z,8.70
2023-04-22T14:20:17.886Z,8.60
2023-04-22T14:22:46.541Z,13.20
2023-04-22T14:25:14.873Z,9.30
2023-04-22T14:27:42.922Z,6.80
2023-04-22T14:30:11.836Z,7.40
2023-04-22T14:32:39.784Z,7.10
2023-04-22T14:35:07.982Z,7.00
2023-04-22T14:37:36.801Z,6.90
2023-04-22T14:40:05.802Z,7.80
2023-04-22T14:42:33.872Z,9.50
2023-04-22T14:45:01.909Z,7.40
2023-04-22T14:47:30.245Z,8.20
2023-04-22T14:49:58.227Z,10.00
2023-04-22T14:52:26.146Z,10.80
2023-04-22T14:54:54.032Z,6.40
2023-04-22T14:57:21.863Z,8.30
2023-04-22T14:59:49.780Z,8.30
2023-04-22T15:02:17.750Z,7.30
2023-04-22T15:04:45.743Z,11.00
2023-04-22T15:07:13.722Z,7.10
2023-04-22T15:09:42.010Z,7.00
2023-04-22T15:12:10.375Z,5.80
2023-04-22T15:14:38.285Z,7.20
2023-04-22T15:17:06.180Z,7.50
2023-04-22T15:19:34.155Z,8.20
2023-04-22T15:22:02.199Z,7.20
2023-04-22T15:24:30.361Z,7.20
2023-04-22T15:26:59.273Z,5.40
2023-04-22T15:29:28.594Z,6.80
2023-04-22T15:31:57.016Z,10.50
2023-04-22T15:34:25.647Z,10.50
2023-04-22T15:36:53.667Z,6.50
2023-04-22T15:39:21.467Z,6.60
2023-04-22T15:41:49.633Z,13.20
2023-04-22T15:44:17.643Z,7.20
2023-04-22T15:46:46.487Z,5.80
2023-04-22T15:49:15.016Z,7.60
2023-04-22T15:51:43.270Z,6.30
2023-04-22T15:54:12.680Z,7.00
2023-04-22T15:56:40.887Z,15.10
2023-04-22T15:59:08.862Z,13.80
2023-04-22T16:01:39.642Z,10.60
2023-04-22T16:04:08.716Z,14.20
2023-04-22T16:06:38.276Z,7.10
2023-04-22T16:09:06.700Z,18.20
2023-04-22T16:11:34.662Z,12.00
2023-04-22T16:14:02.489Z,12.00
2023-04-22T16:16:32.436Z,7.70
2023-04-22T16:19:00.481Z,11.20
2023-04-22T16:21:30.758Z,10.10
2023-04-22T16:23:58.699Z,9.30
2023-04-22T16:26:26.884Z,7.10
2023-04-22T16:28:55.228Z,10.80
2023-04-22T16:31:23.292Z,7.80
2023-04-22T16:33:51.947Z,7.40
2023-04-22T16:36:19.895Z,13.10
2023-04-22T16:38:47.833Z,12.80
2023-04-22T16:41:15.722Z,12.60
2023-04-22T16:43:43.933Z,16.70
2023-04-22T16:46:12.053Z,10.10
2023-04-22T16:48:40.126Z,14.40
2023-04-22T16:51:08.143Z,12.60
2023-04-22T16:53:36.085Z,10.60
2023-04-22T16:56:04.447Z,10.60
2023-04-22T16:58:32.320Z,14.00
2023-04-22T17:01:00.210Z,13.50
2023-04-22T17:03:28.378Z,8.70
2023-04-22T17:05:56.637Z,24.70
2023-04-22T17:08:24.966Z,23.10
2023-04-22T17:10:52.897Z,22.50
2023-04-22T17:13:21.789Z,18.30
2023-04-22T17:15:49.654Z,17.10
2023-04-22T17:18:17.449Z,15.60
2023-04-22T17:20:45.379Z,17.70
2023-04-22T17:23:13.310Z,11.20
2023-04-22T17:25:41.546Z,21.30
2023-04-22T17:28:11.523Z,16.80
2023-04-22T17:30:39.414Z,15.50
2023-04-22T17:33:07.350Z,19.00
2023-04-22T17:35:35.296Z,25.10
2023-04-22T17:38:03.356Z,23.60
2023-04-22T17:40:36.609Z,29.00
2023-04-22T17:43:04.795Z,18.10
2023-04-22T17:45:32.733Z,14.00
2023-04-22T17:48:00.787Z,18.10
2023-04-22T17:50:28.847Z,18.90
2023-04-22T17:52:56.772Z,22.60
2023-04-22T17:55:24.602Z,22.10
2023-04-22T17:57:52.426Z,24.80
2023-04-22T18:00:20.587Z,31.00
2023-04-22T18:02:48.818Z,26.20
2023-04-22T18:05:16.963Z,41.30
2023-04-22T18:07:44.866Z,66.70
2023-04-22T18:10:13.015Z,56.50
2023-04-22T18:12:41.258Z,61.90
2023-04-22T18:15:09.339Z,56.60
2023-04-22T18:17:38.687Z,45.30
2023-04-22T18:20:17.262Z,46.30
2023-04-22T18:22:49.489Z,42.10
2023-04-22T18:25:17.781Z,48.10
2023-04-22T18:27:45.741Z,49.50
2023-04-22T18:30:13.832Z,57.00
2023-04-22T18:32:42.018Z,58.60
2023-04-22T18:35:10.072Z,59.80
2023-04-22T18:37:37.882Z,54.90
2023-04-22T18:40:07.094Z,51.70
2023-04-22T18:42:35.555Z,56.70
2023-04-22T18:45:06.047Z,53.20
2023-04-22T18:47:36.977Z,61.80
2023-04-22T18:52:34.153Z,43.60
2023-04-22T18:55:02.345Z,42.20
2023-04-22T18:57:30.729Z,44.50
2023-04-22T18:59:58.644Z,43.30
2023-04-22T19:02:27.042Z,44.60
2023-04-22T19:04:55.687Z,53.70
2023-04-22T19:07:23.606Z,33.30
2023-04-22T19:09:52.001Z,45.40
2023-04-22T19:12:20.543Z,54.50
2023-04-22T19:14:48.589Z,44.60
2023-04-22T19:17:16.600Z,59.80
2023-04-22T19:19:45.401Z,51.60
2023-04-22T19:22:13.716Z,62.90
2023-04-22T19:24:42.116Z,89.60
2023-04-22T19:27:12.666Z,91.50
2023-04-22T19:32:11.708Z,82.00
2023-04-22T19:34:39.771Z,80.00
2023-04-22T19:37:08.369Z,60.70
2023-04-22T19:39:36.698Z,61.30
2023-04-22T19:42:05.197Z,51.70
2023-04-22T19:44:33.132Z,62.20
2023-04-22T19:47:01.388Z,54.90
2023-04-22T19:49:31.864Z,49.90
2023-04-22T19:52:02.420Z,54.20
2023-04-22T19:54:31.823Z,49.80
2023-04-22T19:57:00.400Z,45.40
2023-04-22T19:59:31.181Z,49.10
2023-04-22T20:01:59.613Z,54.10
2023-04-22T20:04:27.933Z,58.30
2023-04-22T20:06:58.765Z,56.50
2023-04-22T20:09:28.345Z,50.00
2023-04-22T20:11:56.980Z,62.30
2023-04-22T20:14:26.498Z,45.50
2023-04-22T20:16:55.227Z,55.00
2023-04-22T20:19:23.283Z,59.20
2023-04-22T20:21:53.346Z,57.00
2023-04-22T20:24:21.972Z,61.10
2023-04-22T20:26:50.494Z,59.70
2023-04-22T20:29:18.630Z,59.10
2023-04-22T20:31:46.740Z,72.80
2023-04-22T20:34:15.013Z,53.10
2023-04-22T20:36:43.077Z,48.40
2023-04-22T20:39:14.189Z,57.10
2023-04-22T20:41:42.906Z,56.70
2023-04-22T20:44:10.811Z,57.50
2023-04-22T20:46:38.965Z,59.10
2023-04-22T20:49:07.288Z,55.70
2023-04-22T20:51:36.051Z,56.20
2023-04-22T20:54:06.134Z,57.40
2023-04-22T20:56:38.121Z,55.60
2023-04-22T20:59:06.109Z,60.00
2023-04-22T21:01:34.847Z,62.80
2023-04-22T21:04:03.742Z,54.10
2023-04-22T21:06:34.217Z,54.20
2023-04-22T21:09:03.533Z,56.70
2023-04-22T21:11:31.729Z,55.20
2023-04-22T21:13:59.958Z,51.50
2023-04-22T21:16:30.563Z,53.40
2023-04-22T21:19:02.657Z,55.60
2023-04-22T21:21:34.137Z,51.00
2023-04-22T21:24:03.272Z,54.40
2023-04-22T21:26:31.709Z,49.90
2023-04-22T21:29:00.310Z,42.30
2023-04-22T21:31:28.380Z,40.70
2023-04-22T21:33:56.424Z,49.60
2023-04-22T21:36:25.301Z,47.30
2023-04-22T21:38:53.255Z,39.20
2023-04-22T21:41:21.116Z,44.70
2023-04-22T21:43:49.101Z,43.20
2023-04-22T21:46:17.124Z,46.00
2023-04-22T21:48:45.148Z,42.00
2023-04-22T21:51:13.204Z,38.80
2023-04-22T21:53:41.232Z,38.00
2023-04-22T21:56:09.086Z,44.90
2023-04-22T21:58:37.112Z,42.50
2023-04-22T22:01:05.133Z,49.50
2023-04-22T22:03:33.202Z,41.00
2023-04-22T22:06:01.732Z,42.10
2023-04-22T22:08:30.756Z,41.30
2023-04-22T22:10:59.659Z,48.20
2023-04-22T22:13:27.641Z,36.70
2023-04-22T22:15:57.457Z,37.40
2023-04-22T22:18:26.094Z,43.10
2023-04-22T22:20:54.818Z,39.70
2023-04-22T22:23:22.908Z,37.20
2023-04-22T22:25:50.845Z,37.10
2023-04-22T22:28:18.757Z,36.00
2023-04-22T22:30:46.987Z,35.80
2023-04-22T22:33:14.910Z,38.70
2023-04-22T22:35:42.945Z,32.90
2023-04-22T22:38:11.864Z,32.90
2023-04-22T22:40:39.794Z,36.20
2023-04-22T22:43:07.882Z,36.50
2023-04-22T22:45:35.852Z,34.70
2023-04-22T22:48:04.335Z,36.70
2023-04-22T22:50:32.488Z,31.40
2023-04-22T22:53:00.628Z,33.80
2023-04-22T22:55:28.586Z,30.40
2023-04-22T22:57:56.572Z,36.10
2023-04-22T23:00:24.563Z,33.60
2023-04-22T23:02:52.613Z,39.00
2023-04-22T23:05:21.074Z,35.90
2023-04-22T23:07:49.274Z,33.90
2023-04-22T23:10:17.283Z,32.40
2023-04-22T23:12:45.226Z,31.40
2023-04-22T23:15:13.151Z,36.20
2023-04-22T23:17:41.295Z,34.60
2023-04-22T23:20:10.882Z,45.00
2023-04-22T23:22:42.734Z,34.30
2023-04-22T23:25:11.575Z,39.70
2023-04-22T23:27:41.841Z,33.20
2023-04-22T23:30:10.086Z,35.40
2023-04-22T23:32:40.694Z,35.20
2023-04-22T23:35:11.664Z,33.90
2023-04-22T23:37:44.571Z,29.90
2023-04-22T23:40:13.406Z,32.10
2023-04-22T23:42:41.557Z,33.00
2023-04-22T23:45:10.419Z,32.60
2023-04-22T23:47:38.444Z,32.80
2023-04-22T23:50:07.157Z,30.40
2023-04-22T23:52:41.287Z,29.30
2023-04-22T23:55:10.871Z,31.70
2023-04-22T23:57:39.297Z,32.90
